createdAt,value
2018-09-21T00:00:18.148Z,17.87
2018-09-21T00:05:21.581Z,13.90
2018-09-21T00:10:24.974Z,13.70
2018-09-21T00:15:28.547Z,10.30
2018-09-21T00:20:31.896Z,11.60
2018-09-21T00:25:35.275Z,10.23
2018-09-21T00:30:39.994Z,11.70
2018-09-21T00:35:43.336Z,11.57
2018-09-21T00:40:46.658Z,9.63
2018-09-21T00:45:50.379Z,12.10
2018-09-21T00:50:53.725Z,10.90
2018-09-21T00:55:57.178Z,12.33
2018-09-21T01:01:00.749Z,9.13
2018-09-21T01:06:04.285Z,10.63
2018-09-21T01:11:07.801Z,12.53
2018-09-21T01:16:11.229Z,10.07
2018-09-21T01:21:14.616Z,10.15
2018-09-21T01:26:17.994Z,12.30
2018-09-21T01:31:21.523Z,12.63
2018-09-21T01:36:24.896Z,10.80
2018-09-21T01:41:28.350Z,10.17
2018-09-21T01:46:31.654Z,10.03
2018-09-21T01:51:34.941Z,11.13
2018-09-21T01:56:38.438Z,11.90
2018-09-21T02:01:41.903Z,10.03
2018-09-21T02:06:45.230Z,12.10
2018-09-21T02:11:48.641Z,14.27
2018-09-21T02:16:51.993Z,10.30
2018-09-21T02:21:55.330Z,7.87
2018-09-21T02:26:58.911Z,12.20
2018-09-21T02:32:02.239Z,8.97
2018-09-21T02:37:05.594Z,11.83
2018-09-21T02:42:09.049Z,9.80
2018-09-21T02:47:12.395Z,11.93
2018-09-21T02:52:15.774Z,10.27
2018-09-21T02:57:19.921Z,10.97
2018-09-21T03:02:23.313Z,10.63
2018-09-21T03:07:26.701Z,11.33
2018-09-21T03:12:30.127Z,10.07
2018-09-21T03:17:33.645Z,10.60
2018-09-21T03:22:37.312Z,9.87
2018-09-21T03:27:40.981Z,8.93
2018-09-21T03:32:44.482Z,9.90
2018-09-21T03:37:47.948Z,7.63
2018-09-21T03:42:51.382Z,10.00
2018-09-21T03:47:54.816Z,10.90
2018-09-21T03:52:58.488Z,10.53
2018-09-21T03:58:02.274Z,7.10
2018-09-21T04:03:06.131Z,10.57
2018-09-21T04:08:09.551Z,9.03
2018-09-21T04:13:13.123Z,9.50
2018-09-21T04:18:16.464Z,9.40
2018-09-21T04:23:19.970Z,8.77
2018-09-21T04:28:23.307Z,8.00
2018-09-21T04:33:26.758Z,8.70
2018-09-21T04:38:29.826Z,7.90
2018-09-21T04:43:33.201Z,8.73
2018-09-21T04:48:36.694Z,10.10
2018-09-21T04:53:40.011Z,10.90
2018-09-21T04:58:43.568Z,7.50
2018-09-21T05:03:47.142Z,10.07
2018-09-21T05:08:50.573Z,10.43
2018-09-21T05:13:54.500Z,10.20
2018-09-21T05:18:58.450Z,11.17
2018-09-21T05:24:02.117Z,8.73
2018-09-21T05:29:06.121Z,10.20
2018-09-21T05:34:09.652Z,9.67
2018-09-21T05:39:14.543Z,11.63
2018-09-21T05:44:18.973Z,13.20
2018-09-21T05:49:22.454Z,10.63
2018-09-21T05:54:25.903Z,10.83
2018-09-21T05:59:29.216Z,9.23
2018-09-21T06:04:32.689Z,11.13
2018-09-21T06:09:36.027Z,9.23
2018-09-21T06:14:39.462Z,11.87
2018-09-21T06:19:42.921Z,12.47
2018-09-21T06:24:46.249Z,11.73
2018-09-21T06:29:49.668Z,13.37
2018-09-21T06:34:53.169Z,13.13
2018-09-21T06:39:56.448Z,11.07
2018-09-21T06:44:59.920Z,12.37
2018-09-21T06:50:03.461Z,9.77
2018-09-21T06:55:07.232Z,11.77
2018-09-21T07:00:10.666Z,17.63
2018-09-21T07:05:17.057Z,12.83
2018-09-21T07:10:20.618Z,10.50
2018-09-21T07:15:24.103Z,16.40
2018-09-21T07:20:27.918Z,11.60
2018-09-21T07:25:31.432Z,11.27
2018-09-21T07:30:34.925Z,12.90
2018-09-21T07:35:38.463Z,14.83
2018-09-21T07:40:41.966Z,11.77
2018-09-21T07:45:45.443Z,14.70
2018-09-21T07:50:48.931Z,12.27
2018-09-21T07:55:52.359Z,14.27
2018-09-21T08:00:55.877Z,15.53
2018-09-21T08:05:59.308Z,13.37
2018-09-21T08:11:02.854Z,14.67
2018-09-21T08:16:06.201Z,14.13
2018-09-21T08:21:09.560Z,15.23
2018-09-21T08:26:13.206Z,17.27
2018-09-21T08:31:16.799Z,12.53
2018-09-21T08:36:20.315Z,13.43
2018-09-21T08:41:23.882Z,11.30
2018-09-21T08:46:27.350Z,12.87
2018-09-21T08:51:30.950Z,11.18
2018-09-21T08:56:34.601Z,11.80
2018-09-21T09:01:38.186Z,9.93
2018-09-21T09:06:41.637Z,11.43
2018-09-21T09:11:45.126Z,12.80
2018-09-21T09:16:48.819Z,14.67
2018-09-21T09:21:52.163Z,10.50
2018-09-21T09:26:55.507Z,11.17
2018-09-21T09:31:59.005Z,7.53
2018-09-21T09:37:02.359Z,13.70
2018-09-21T09:42:05.849Z,11.33
2018-09-21T09:47:09.275Z,16.10
2018-09-21T09:52:12.813Z,8.00
2018-09-21T09:57:16.363Z,11.47
2018-09-21T10:02:19.923Z,8.93
2018-09-21T10:07:23.689Z,12.93
2018-09-21T10:12:27.200Z,11.40
2018-09-21T10:17:30.621Z,8.00
2018-09-21T10:22:34.059Z,9.60
2018-09-21T10:27:37.748Z,11.00
2018-09-21T10:32:41.105Z,10.73
2018-09-21T10:37:44.618Z,12.73
2018-09-21T10:42:48.142Z,12.43
2018-09-21T10:47:51.825Z,9.57
2018-09-21T10:52:55.236Z,7.63
2018-09-21T10:57:58.651Z,8.80
2018-09-21T11:03:02.137Z,9.03
2018-09-21T11:08:05.542Z,8.63
2018-09-21T11:13:08.973Z,12.47
2018-09-21T11:18:12.316Z,11.30
2018-09-21T11:23:15.695Z,7.87
2018-09-21T11:28:19.085Z,9.00
2018-09-21T11:33:22.505Z,8.63
2018-09-21T11:38:25.855Z,7.28
2018-09-21T11:43:29.342Z,10.48
2018-09-21T11:48:32.654Z,9.10
2018-09-21T11:53:36.366Z,23.10
2018-09-21T11:58:39.928Z,9.95
2018-09-21T12:03:43.228Z,8.30
2018-09-21T12:08:46.733Z,15.48
2018-09-21T12:13:50.037Z,8.48
2018-09-21T12:18:53.540Z,8.65
2018-09-21T12:23:57.182Z,8.05
2018-09-21T12:29:00.490Z,6.10
2018-09-21T12:34:03.854Z,5.70
2018-09-21T12:39:09.351Z,6.75
2018-09-21T12:44:14.297Z,8.28
2018-09-21T12:49:18.206Z,6.50
2018-09-21T12:54:21.656Z,5.83
2018-09-21T12:59:24.977Z,7.87
2018-09-21T13:04:28.339Z,7.33
2018-09-21T13:09:31.666Z,6.83
2018-09-21T13:14:35.168Z,6.60
2018-09-21T13:19:38.534Z,5.67
2018-09-21T13:24:41.912Z,6.20
2018-09-21T13:29:45.465Z,4.90
2018-09-21T13:34:48.825Z,10.00
2018-09-21T13:39:52.084Z,11.28
2018-09-21T13:44:55.606Z,5.72
2018-09-21T13:49:58.656Z,6.95
2018-09-21T13:55:02.210Z,5.20
2018-09-21T14:00:05.648Z,11.90
2018-09-21T14:05:09.053Z,5.42
2018-09-21T14:10:12.757Z,7.92
2018-09-21T14:15:16.094Z,5.92
2018-09-21T14:20:19.605Z,7.47
2018-09-21T14:25:22.935Z,10.05
2018-09-21T14:30:26.385Z,9.93
2018-09-21T14:35:29.714Z,7.97
2018-09-21T14:40:33.173Z,7.90
2018-09-21T14:45:36.680Z,6.20
2018-09-21T14:50:40.212Z,6.45
2018-09-21T14:55:43.918Z,6.45
2018-09-21T15:00:47.388Z,7.63
2018-09-21T15:05:50.945Z,7.95
2018-09-21T15:10:54.256Z,6.57
2018-09-21T15:15:57.706Z,7.77
2018-09-21T15:21:00.985Z,5.75
2018-09-21T15:26:04.299Z,7.65
2018-09-21T15:31:07.698Z,9.48
2018-09-21T15:36:11.021Z,10.70
2018-09-21T15:41:14.363Z,10.70
2018-09-21T15:46:17.781Z,11.27
2018-09-21T15:51:21.105Z,7.73
2018-09-21T15:56:24.541Z,2.47
2018-09-21T16:01:27.962Z,6.60
2018-09-21T16:06:33.974Z,5.07
2018-09-21T16:11:38.426Z,6.83
2018-09-21T16:16:41.742Z,6.20
2018-09-21T16:21:45.497Z,5.93
2018-09-21T16:26:48.809Z,5.37
2018-09-21T16:31:52.341Z,5.80
2018-09-21T16:36:55.642Z,4.70
2018-09-21T16:41:59.005Z,6.33
2018-09-21T16:47:02.477Z,4.23
2018-09-21T16:52:05.781Z,4.30
2018-09-21T16:57:09.124Z,7.00
2018-09-21T17:02:12.515Z,4.77
2018-09-21T17:07:17.190Z,5.70
2018-09-21T17:12:20.709Z,2.27
2018-09-21T17:17:24.112Z,5.43
2018-09-21T17:22:27.654Z,5.10
2018-09-21T17:27:31.117Z,4.20
2018-09-21T17:32:35.802Z,5.10
2018-09-21T17:37:39.415Z,2.87
2018-09-21T17:42:42.754Z,5.37
2018-09-21T17:47:46.587Z,7.20
2018-09-21T17:52:49.915Z,10.67
2018-09-21T17:57:53.258Z,8.57
2018-09-21T18:02:56.745Z,9.43
2018-09-21T18:08:00.054Z,4.57
2018-09-21T18:13:03.357Z,3.30
2018-09-21T18:18:07.229Z,2.43
2018-09-21T18:23:10.565Z,1.27
2018-09-21T18:28:13.957Z,0.70
2018-09-21T18:33:17.258Z,0.50
2018-09-21T18:38:20.698Z,2.27
2018-09-21T18:43:24.268Z,1.50
2018-09-21T18:48:28.050Z,0.30
2018-09-21T18:53:31.638Z,0.63
2018-09-21T18:58:36.393Z,1.53
2018-09-21T19:03:39.813Z,0.70
2018-09-21T19:08:43.467Z,0.43
2018-09-21T19:13:47.083Z,0.50
2018-09-21T19:18:50.508Z,1.23
2018-09-21T19:23:54.978Z,0.80
2018-09-21T19:28:58.629Z,0.40
2018-09-21T19:34:02.132Z,0.97
2018-09-21T19:39:09.228Z,1.00
2018-09-21T19:44:12.623Z,1.43
2018-09-21T19:49:17.682Z,1.20
2018-09-21T19:54:21.057Z,0.43
2018-09-21T19:59:24.456Z,0.50
2018-09-21T20:04:27.761Z,1.40
2018-09-21T20:09:32.072Z,1.43
2018-09-21T20:14:35.692Z,4.97
2018-09-21T20:19:39.063Z,0.60
2018-09-21T20:24:42.527Z,3.60
2018-09-21T20:29:45.961Z,1.00
2018-09-21T20:34:49.457Z,2.93
2018-09-21T20:39:52.888Z,1.77
2018-09-21T20:44:56.194Z,3.03
2018-09-21T20:49:59.653Z,4.10
2018-09-21T20:55:02.981Z,3.33
2018-09-21T21:00:06.707Z,1.53
2018-09-21T21:05:10.210Z,2.43
2018-09-21T21:10:13.673Z,2.75
2018-09-21T21:15:16.973Z,2.33
2018-09-21T21:20:20.317Z,3.87
2018-09-21T21:25:23.711Z,1.80
2018-09-21T21:30:27.475Z,2.37
2018-09-21T21:35:31.171Z,5.20
2018-09-21T21:40:34.703Z,5.83
2018-09-21T21:45:38.353Z,3.60
2018-09-21T21:50:43.137Z,3.52
2018-09-21T21:55:46.462Z,1.67
2018-09-21T22:00:54.992Z,0.83
2018-09-21T22:05:58.305Z,2.60
2018-09-21T22:11:06.354Z,2.80
2018-09-21T22:16:09.744Z,1.73
2018-09-21T22:21:13.242Z,2.17
2018-09-21T22:26:16.553Z,6.00
2018-09-21T22:31:19.868Z,3.53
2018-09-21T22:36:23.403Z,5.83
2018-09-21T22:41:26.696Z,1.60
2018-09-21T22:46:30.250Z,3.13
2018-09-21T22:51:33.628Z,1.40
2018-09-21T22:56:36.936Z,1.07
2018-09-21T23:01:40.380Z,4.67
2018-09-21T23:06:43.789Z,1.63
2018-09-21T23:11:47.387Z,2.67
2018-09-21T23:16:50.816Z,0.67
2018-09-21T23:21:54.140Z,0.47
2018-09-21T23:26:57.659Z,2.80
2018-09-21T23:32:01.237Z,1.97
2018-09-21T23:37:04.726Z,1.90
2018-09-21T23:42:08.025Z,4.50
2018-09-21T23:47:11.349Z,2.57
2018-09-21T23:52:14.821Z,6.27
2018-09-21T23:57:18.317Z,4.27
